createdAt,value
2023-05-05T00:02:00.915Z,100.00
2023-05-05T00:04:29.070Z,100.00
2023-05-05T00:06:57.413Z,100.00
2023-05-05T00:09:26.659Z,100.00
2023-05-05T00:11:54.700Z,100.00
2023-05-05T00:14:22.584Z,100.00
2023-05-05T00:16:50.544Z,100.00
2023-05-05T00:19:18.484Z,100.00
2023-05-05T00:21:46.417Z,100.00
2023-05-05T00:24:14.340Z,100.00
2023-05-05T00:26:43.627Z,100.00
2023-05-05T00:29:11.525Z,100.00
2023-05-05T00:31:39.756Z,100.00
2023-05-05T00:34:07.784Z,100.00
2023-05-05T00:36:35.977Z,100.00
2023-05-05T00:39:04.510Z,100.00
2023-05-05T00:41:32.731Z,100.00
2023-05-05T00:44:01.990Z,100.00
2023-05-05T00:46:31.697Z,100.00
2023-05-05T00:49:00.010Z,100.00
2023-05-05T00:51:29.392Z,100.00
2023-05-05T00:53:57.436Z,100.00
2023-05-05T00:56:27.461Z,100.00
2023-05-05T00:58:55.675Z,100.00
2023-05-05T01:01:24.984Z,100.00
2023-05-05T01:03:52.998Z,100.00
2023-05-05T01:06:38.575Z,100.00
2023-05-05T01:09:12.918Z,100.00
2023-05-05T01:11:52.626Z,100.00
2023-05-05T01:14:26.112Z,100.00
2023-05-05T01:17:00.105Z,100.00
2023-05-05T01:19:50.536Z,100.00
2023-05-05T01:22:21.854Z,100.00
2023-05-05T01:25:13.537Z,100.00
2023-05-05T01:28:01.980Z,100.00
2023-05-05T01:30:58.802Z,100.00
2023-05-05T01:33:32.682Z,100.00
2023-05-05T01:36:07.748Z,100.00
2023-05-05T01:38:41.899Z,100.00
2023-05-05T01:41:14.992Z,100.00
2023-05-05T01:43:47.117Z,100.00
2023-05-05T01:46:16.379Z,100.00
2023-05-05T01:48:47.052Z,100.00
2023-05-05T01:51:17.050Z,100.00
2023-05-05T01:53:47.209Z,100.00
2023-05-05T01:56:16.888Z,100.00
2023-05-05T01:58:47.791Z,100.00
2023-05-05T02:01:16.949Z,100.00
2023-05-05T02:03:47.430Z,100.00
2023-05-05T02:06:17.543Z,100.00
2023-05-05T02:08:47.287Z,100.00
2023-05-05T02:11:16.704Z,100.00
2023-05-05T02:13:45.790Z,100.00
2023-05-05T02:16:15.047Z,100.00
2023-05-05T02:18:44.246Z,100.00
2023-05-05T02:21:14.815Z,100.00
2023-05-05T02:23:42.727Z,100.00
2023-05-05T02:26:13.403Z,100.00
2023-05-05T02:28:43.600Z,100.00
2023-05-05T02:31:15.017Z,100.00
2023-05-05T02:33:45.466Z,100.00
2023-05-05T02:36:20.378Z,100.00
2023-05-05T02:38:52.992Z,100.00
2023-05-05T02:41:22.800Z,100.00
2023-05-05T02:43:52.293Z,100.00
2023-05-05T02:46:20.614Z,100.00
2023-05-05T02:48:48.554Z,100.00
2023-05-05T02:51:17.772Z,100.00
2023-05-05T02:53:45.906Z,99.99
2023-05-05T02:56:27.996Z,100.00
2023-05-05T02:59:01.490Z,100.00
2023-05-05T03:01:40.658Z,100.00
2023-05-05T03:04:13.178Z,100.00
2023-05-05T03:06:46.735Z,98.93
2023-05-05T03:09:22.354Z,98.11
2023-05-05T03:11:54.388Z,98.30
2023-05-05T03:14:23.778Z,98.58
2023-05-05T03:16:51.909Z,98.97
2023-05-05T03:19:21.341Z,98.93
2023-05-05T03:21:52.511Z,99.32
2023-05-05T03:24:21.699Z,98.88
2023-05-05T03:26:50.697Z,100.00
2023-05-05T03:29:18.699Z,99.82
2023-05-05T03:31:46.863Z,100.00
2023-05-05T03:34:14.768Z,100.00
2023-05-05T03:36:42.830Z,100.00
2023-05-05T03:39:12.025Z,100.00
2023-05-05T03:41:39.953Z,99.82
2023-05-05T03:44:07.983Z,98.63
2023-05-05T03:46:36.088Z,98.43
2023-05-05T03:49:03.974Z,96.86
2023-05-05T03:51:32.220Z,95.36
2023-05-05T03:54:00.089Z,94.96
2023-05-05T03:56:29.380Z,95.29
2023-05-05T03:58:57.237Z,95.25
2023-05-05T04:01:25.364Z,94.24
2023-05-05T04:03:53.335Z,94.54
2023-05-05T04:06:21.329Z,94.67
2023-05-05T04:08:49.256Z,93.76
2023-05-05T04:11:17.317Z,93.53
2023-05-05T04:13:47.096Z,93.55
2023-05-05T04:16:15.129Z,93.38
2023-05-05T04:18:43.065Z,92.63
2023-05-05T04:21:11.088Z,92.62
2023-05-05T04:23:39.017Z,92.78
2023-05-05T04:26:07.005Z,92.14
2023-05-05T04:28:34.876Z,90.91
2023-05-05T04:31:05.168Z,90.76
2023-05-05T04:33:33.263Z,91.08
2023-05-05T04:36:01.173Z,91.90
2023-05-05T04:38:29.090Z,91.81
2023-05-05T04:40:57.058Z,92.20
2023-05-05T04:43:25.024Z,91.17
2023-05-05T04:45:56.128Z,90.83
2023-05-05T04:48:25.537Z,91.94
2023-05-05T04:50:53.512Z,92.70
2023-05-05T04:53:21.407Z,93.25
2023-05-05T04:55:49.385Z,93.20
2023-05-05T04:58:17.400Z,92.49
2023-05-05T05:00:45.348Z,92.78
2023-05-05T05:03:13.269Z,91.39
2023-05-05T05:05:42.830Z,91.19
2023-05-05T05:08:10.884Z,90.96
2023-05-05T05:10:38.820Z,91.00
2023-05-05T05:13:06.790Z,89.78
2023-05-05T05:15:34.757Z,89.87
2023-05-05T05:18:02.871Z,90.17
2023-05-05T05:20:31.326Z,91.02
2023-05-05T05:23:02.145Z,90.75
2023-05-05T05:25:30.417Z,90.83
2023-05-05T05:28:08.830Z,90.77
2023-05-05T05:30:37.799Z,91.68
2023-05-05T05:33:05.971Z,91.31
2023-05-05T05:35:33.986Z,89.94
2023-05-05T05:38:03.314Z,89.33
2023-05-05T05:40:31.575Z,88.75
2023-05-05T05:42:59.506Z,89.36
2023-05-05T05:45:27.503Z,87.60
2023-05-05T05:47:55.571Z,86.99
2023-05-05T05:50:24.627Z,87.79
2023-05-05T05:52:52.576Z,87.76
2023-05-05T05:55:22.011Z,86.43
2023-05-05T05:57:49.967Z,85.88
2023-05-05T06:00:18.165Z,85.55
2023-05-05T06:02:46.087Z,85.25
2023-05-05T06:05:13.975Z,85.16
2023-05-05T06:07:41.909Z,85.43
2023-05-05T06:10:25.970Z,84.91
2023-05-05T06:12:56.490Z,85.58
2023-05-05T06:15:25.532Z,84.42
2023-05-05T06:17:53.578Z,84.52
2023-05-05T06:20:21.533Z,83.14
2023-05-05T06:22:49.449Z,82.61
2023-05-05T06:25:17.801Z,80.73
2023-05-05T06:27:46.000Z,79.83
2023-05-05T06:30:15.845Z,79.07
2023-05-05T06:32:43.784Z,78.95
2023-05-05T06:35:11.893Z,78.98
2023-05-05T06:37:39.911Z,78.65
2023-05-05T06:40:10.559Z,77.81
2023-05-05T06:42:38.574Z,76.65
2023-05-05T06:45:07.370Z,75.86
2023-05-05T06:47:37.281Z,75.43
2023-05-05T06:50:06.002Z,74.80
2023-05-05T06:52:34.157Z,74.53
2023-05-05T06:55:02.057Z,74.09
2023-05-05T06:57:29.961Z,73.24
2023-05-05T06:59:57.939Z,72.10
2023-05-05T07:02:26.926Z,72.13
2023-05-05T07:04:56.446Z,70.80
2023-05-05T07:07:24.503Z,67.98
2023-05-05T07:09:52.502Z,68.13
2023-05-05T07:12:20.428Z,66.99
2023-05-05T07:14:48.370Z,66.60
2023-05-05T07:17:16.312Z,66.70
2023-05-05T07:19:44.317Z,66.63
2023-05-05T07:22:13.588Z,66.73
2023-05-05T07:24:41.660Z,67.59
2023-05-05T07:27:09.725Z,66.10
2023-05-05T07:29:37.658Z,66.74
2023-05-05T07:32:06.049Z,66.27
2023-05-05T07:34:34.719Z,67.72
2023-05-05T07:37:04.149Z,68.41
2023-05-05T07:39:34.121Z,68.19
2023-05-05T07:42:02.494Z,65.84
2023-05-05T07:44:30.611Z,64.78
2023-05-05T07:46:58.551Z,64.75
2023-05-05T07:49:26.849Z,66.27
2023-05-05T07:51:55.492Z,65.21
2023-05-05T07:54:23.455Z,65.79
2023-05-05T07:56:52.776Z,64.95
2023-05-05T07:59:20.883Z,65.10
2023-05-05T08:01:48.818Z,65.81
2023-05-05T08:04:16.794Z,65.61
2023-05-05T08:06:44.684Z,65.12
2023-05-05T08:09:12.769Z,65.70
2023-05-05T08:11:40.905Z,65.52
2023-05-05T08:14:10.204Z,65.25
2023-05-05T08:16:38.165Z,64.06
2023-05-05T08:19:14.524Z,65.11
2023-05-05T08:21:49.448Z,63.35
2023-05-05T08:24:17.425Z,63.44
2023-05-05T08:26:45.342Z,63.53
2023-05-05T08:29:14.582Z,62.17
2023-05-05T08:31:42.671Z,63.29
2023-05-05T08:34:10.871Z,61.50
2023-05-05T08:36:38.975Z,61.79
2023-05-05T08:39:07.283Z,62.99
2023-05-05T08:41:35.537Z,61.48
2023-05-05T08:44:03.583Z,60.90
2023-05-05T08:46:33.302Z,61.91
2023-05-05T08:49:03.846Z,61.84
2023-05-05T08:51:38.581Z,61.17
2023-05-05T08:54:08.312Z,63.31
2023-05-05T08:56:41.551Z,61.38
2023-05-05T08:59:11.162Z,60.99
2023-05-05T09:01:42.736Z,62.28
2023-05-05T09:04:11.088Z,61.04
2023-05-05T09:06:39.147Z,59.55
2023-05-05T09:09:08.374Z,58.66
2023-05-05T09:11:37.553Z,57.56
2023-05-05T09:14:05.445Z,55.91
2023-05-05T09:16:33.484Z,55.81
2023-05-05T09:19:06.303Z,55.53
2023-05-05T09:21:34.321Z,56.65
2023-05-05T09:24:08.589Z,56.11
2023-05-05T09:26:38.825Z,58.90
2023-05-05T09:29:07.314Z,57.31
2023-05-05T09:31:36.424Z,55.85
2023-05-05T09:34:15.497Z,56.15
2023-05-05T09:36:48.194Z,55.22
2023-05-05T09:39:18.001Z,54.26
2023-05-05T09:41:47.014Z,52.34
2023-05-05T09:44:17.062Z,51.32
2023-05-05T09:46:52.618Z,50.66
2023-05-05T09:49:25.640Z,52.00
2023-05-05T09:51:54.247Z,52.54
2023-05-05T09:54:26.528Z,51.42
2023-05-05T09:56:54.554Z,52.05
2023-05-05T09:59:23.123Z,52.03
2023-05-05T10:01:52.428Z,50.44
2023-05-05T10:04:31.588Z,50.41
2023-05-05T10:07:00.298Z,52.13
2023-05-05T10:09:29.087Z,51.12
2023-05-05T10:11:59.016Z,51.15
2023-05-05T10:14:28.803Z,50.47
2023-05-05T10:16:56.953Z,47.94
2023-05-05T10:19:28.996Z,47.97
2023-05-05T10:22:03.946Z,47.94
2023-05-05T10:24:39.112Z,48.31
2023-05-05T10:27:13.704Z,47.50
2023-05-05T10:29:49.751Z,47.83
2023-05-05T10:32:47.445Z,46.43
2023-05-05T10:35:17.933Z,47.15
2023-05-05T10:37:46.623Z,47.26
2023-05-05T10:40:15.920Z,47.43
2023-05-05T10:42:44.729Z,48.19
2023-05-05T10:45:12.685Z,48.69
2023-05-05T10:47:41.445Z,50.04
2023-05-05T10:50:19.193Z,51.57
2023-05-05T10:52:56.754Z,52.42
2023-05-05T10:55:33.397Z,51.98
2023-05-05T10:58:01.293Z,51.42
2023-05-05T11:00:52.375Z,52.08
2023-05-05T11:03:22.026Z,52.21
2023-05-05T11:06:13.651Z,52.64
2023-05-05T11:08:43.033Z,51.90
2023-05-05T11:11:11.779Z,51.00
2023-05-05T11:13:40.602Z,50.19
2023-05-05T11:16:40.849Z,49.34
2023-05-05T11:19:42.267Z,50.00
2023-05-05T11:22:11.787Z,48.17
2023-05-05T11:24:40.686Z,49.11
2023-05-05T11:27:08.640Z,50.17
2023-05-05T11:30:11.041Z,50.79
2023-05-05T11:32:39.156Z,50.43
2023-05-05T11:35:08.018Z,49.53
2023-05-05T11:37:38.654Z,50.05
2023-05-05T11:40:17.725Z,49.97
2023-05-05T11:42:46.379Z,49.51
2023-05-05T11:45:22.502Z,50.01
2023-05-05T11:47:50.907Z,51.58
2023-05-05T11:50:22.995Z,51.06
2023-05-05T11:52:52.399Z,51.38
2023-05-05T11:55:24.075Z,51.02
2023-05-05T11:57:52.175Z,50.65
2023-05-05T12:00:20.921Z,51.94
2023-05-05T12:02:57.664Z,51.58
2023-05-05T12:05:25.891Z,52.39
2023-05-05T12:07:59.676Z,51.87
2023-05-05T12:10:28.152Z,52.85
2023-05-05T12:12:56.136Z,53.48
2023-05-05T12:15:31.952Z,52.98
2023-05-05T12:18:02.319Z,51.43
2023-05-05T12:20:32.398Z,51.21
2023-05-05T12:23:05.678Z,51.04
2023-05-05T12:25:38.216Z,51.47
2023-05-05T12:28:07.257Z,51.22
2023-05-05T12:30:35.978Z,51.83
2023-05-05T12:33:05.177Z,51.88
2023-05-05T12:35:33.540Z,52.00
2023-05-05T12:38:01.667Z,51.46
2023-05-05T12:40:51.780Z,51.19
2023-05-05T12:43:30.550Z,50.22
2023-05-05T12:46:06.649Z,50.50
2023-05-05T12:48:35.833Z,50.86
2023-05-05T12:51:28.206Z,51.21
2023-05-05T12:54:07.235Z,50.61
2023-05-05T12:56:40.969Z,51.14
2023-05-05T12:59:10.319Z,49.94
2023-05-05T13:01:49.735Z,50.80
2023-05-05T13:04:18.549Z,50.18
2023-05-05T13:06:49.474Z,51.26
2023-05-05T13:09:27.319Z,51.33
2023-05-05T13:11:56.609Z,52.35
2023-05-05T13:14:24.716Z,51.34
2023-05-05T13:16:52.655Z,51.96
2023-05-05T13:19:20.607Z,51.45
2023-05-05T13:21:48.623Z,52.49
2023-05-05T13:26:47.748Z,53.17
2023-05-05T13:29:17.546Z,52.81
2023-05-05T13:31:46.217Z,53.37
2023-05-05T13:34:14.400Z,53.99
2023-05-05T13:36:42.352Z,54.31
2023-05-05T13:39:10.300Z,54.85
2023-05-05T13:41:38.212Z,55.08
2023-05-05T13:44:06.152Z,54.90
2023-05-05T13:46:35.499Z,53.85
2023-05-05T13:49:03.501Z,55.03
2023-05-05T13:51:31.501Z,55.07
2023-05-05T13:54:00.783Z,54.51
2023-05-05T13:56:29.250Z,54.60
2023-05-05T13:58:57.311Z,54.84
2023-05-05T14:01:25.272Z,54.26
2023-05-05T14:03:57.158Z,54.47
2023-05-05T14:06:25.989Z,52.99
2023-05-05T14:08:54.075Z,52.61
2023-05-05T14:11:22.110Z,53.04
2023-05-05T14:13:50.063Z,53.68
2023-05-05T14:16:17.967Z,53.85
2023-05-05T14:18:45.902Z,53.25
2023-05-05T14:21:15.264Z,53.13
2023-05-05T14:23:43.292Z,52.13
2023-05-05T14:26:11.228Z,53.59
2023-05-05T14:28:39.104Z,52.13
2023-05-05T14:31:07.072Z,50.06
2023-05-05T14:33:35.045Z,51.19
2023-05-05T14:36:03.068Z,51.04
2023-05-05T14:38:32.460Z,51.48
2023-05-05T14:41:00.410Z,50.08
2023-05-05T14:43:28.292Z,49.76
2023-05-05T14:45:58.292Z,48.68
2023-05-05T14:48:26.371Z,49.34
2023-05-05T14:50:54.222Z,48.76
2023-05-05T14:53:22.180Z,49.79
2023-05-05T14:55:51.426Z,50.11
2023-05-05T14:58:22.466Z,50.26
2023-05-05T15:00:50.335Z,50.79
2023-05-05T15:03:18.428Z,50.42
2023-05-05T15:05:46.466Z,49.42
2023-05-05T15:08:14.897Z,49.03
2023-05-05T15:10:42.784Z,49.18
2023-05-05T15:13:12.235Z,48.76
2023-05-05T15:15:40.517Z,48.70
2023-05-05T15:18:08.528Z,48.44
2023-05-05T15:20:36.461Z,49.17
2023-05-05T15:23:04.463Z,50.20
2023-05-05T15:25:32.478Z,49.66
2023-05-05T15:28:00.964Z,49.80
2023-05-05T15:30:30.350Z,50.94
2023-05-05T15:32:58.292Z,52.17
2023-05-05T15:35:26.483Z,53.08
2023-05-05T15:37:54.634Z,52.46
2023-05-05T15:40:22.968Z,50.22
2023-05-05T15:42:50.939Z,51.32
2023-05-05T15:45:18.824Z,52.84
2023-05-05T15:47:48.108Z,52.88
2023-05-05T15:50:16.202Z,53.72
2023-05-05T15:52:44.305Z,55.13
2023-05-05T15:55:12.678Z,55.31
2023-05-05T15:57:40.766Z,55.80
2023-05-05T16:00:10.366Z,56.54
2023-05-05T16:02:38.425Z,57.93
2023-05-05T16:05:08.389Z,57.90
2023-05-05T16:07:36.472Z,57.60
2023-05-05T16:10:04.548Z,57.93
2023-05-05T16:12:32.523Z,59.90
2023-05-05T16:15:00.445Z,61.31
2023-05-05T16:17:28.605Z,61.25
2023-05-05T16:19:56.592Z,60.82
2023-05-05T16:22:25.821Z,60.95
2023-05-05T16:24:53.781Z,61.49
2023-05-05T16:27:21.783Z,61.92
2023-05-05T16:29:49.770Z,61.30
2023-05-05T16:32:17.811Z,61.18
2023-05-05T16:34:45.797Z,61.65
2023-05-05T16:37:13.780Z,63.48
2023-05-05T16:39:43.052Z,62.94
2023-05-05T16:42:11.061Z,62.71
2023-05-05T16:44:38.897Z,62.78
2023-05-05T16:47:06.802Z,62.35
2023-05-05T16:49:34.644Z,63.52
2023-05-05T16:52:02.678Z,63.89
2023-05-05T16:54:30.745Z,63.52
2023-05-05T16:57:00.177Z,63.71
2023-05-05T16:59:29.665Z,64.23
2023-05-05T17:01:59.010Z,64.47
2023-05-05T17:04:27.121Z,62.98
2023-05-05T17:06:56.358Z,62.73
2023-05-05T17:09:25.006Z,63.01
2023-05-05T17:11:52.998Z,62.34
2023-05-05T17:14:22.285Z,62.94
2023-05-05T17:16:50.220Z,63.01
2023-05-05T17:19:18.132Z,63.25
2023-05-05T17:21:46.137Z,62.12
2023-05-05T17:24:14.077Z,61.97
2023-05-05T17:26:42.062Z,64.59
2023-05-05T17:29:12.290Z,64.74
2023-05-05T17:31:42.940Z,64.76
2023-05-05T17:34:10.948Z,63.68
2023-05-05T17:36:38.916Z,64.75
2023-05-05T17:39:06.962Z,64.46
2023-05-05T17:41:35.055Z,64.16
2023-05-05T17:44:02.973Z,65.04
2023-05-05T17:46:30.947Z,62.55
2023-05-05T17:49:00.637Z,62.64
2023-05-05T17:51:28.782Z,62.26
2023-05-05T17:53:56.706Z,63.12
2023-05-05T17:56:24.612Z,63.42
2023-05-05T17:58:53.101Z,63.58
2023-05-05T18:01:22.257Z,63.89
2023-05-05T18:03:50.408Z,64.53
2023-05-05T18:06:19.898Z,65.02
2023-05-05T18:08:47.772Z,64.61
2023-05-05T18:11:15.741Z,64.22
2023-05-05T18:13:44.006Z,65.31
2023-05-05T18:16:11.936Z,65.60
2023-05-05T18:18:40.597Z,66.13
2023-05-05T18:21:12.285Z,65.78
2023-05-05T18:23:41.718Z,66.02
2023-05-05T18:26:09.939Z,64.35
2023-05-05T18:28:38.018Z,63.00
2023-05-05T18:31:06.301Z,62.29
2023-05-05T18:33:34.345Z,62.39
2023-05-05T18:36:03.712Z,62.60
2023-05-05T18:38:32.724Z,62.67
2023-05-05T18:41:02.023Z,62.39
2023-05-05T18:43:29.939Z,61.52
2023-05-05T18:45:57.910Z,61.76
2023-05-05T18:48:26.267Z,62.21
2023-05-05T18:50:54.251Z,61.45
2023-05-05T18:53:22.390Z,61.28
2023-05-05T18:55:50.288Z,61.21
2023-05-05T18:58:19.949Z,60.94
2023-05-05T19:00:48.005Z,60.28
2023-05-05T19:03:16.331Z,59.88
2023-05-05T19:05:44.522Z,60.34
2023-05-05T19:08:12.473Z,60.09
2023-05-05T19:10:40.370Z,59.51
2023-05-05T19:13:09.479Z,59.42
2023-05-05T19:15:38.984Z,59.88
2023-05-05T19:18:07.238Z,60.14
2023-05-05T19:20:35.191Z,59.67
2023-05-05T19:23:04.448Z,59.95
2023-05-05T19:25:32.437Z,59.43
2023-05-05T19:28:00.335Z,59.39
2023-05-05T19:30:28.459Z,59.75
2023-05-05T19:32:57.903Z,59.53
2023-05-05T19:35:26.188Z,60.03
2023-05-05T19:37:54.122Z,59.41
2023-05-05T19:40:22.161Z,59.03
2023-05-05T19:42:50.206Z,59.81
2023-05-05T19:45:18.394Z,59.45
2023-05-05T19:47:46.372Z,60.17
2023-05-05T19:50:16.632Z,60.13
2023-05-05T19:52:44.570Z,60.30
2023-05-05T19:55:13.217Z,60.96
2023-05-05T19:57:41.755Z,61.12
2023-05-05T20:00:11.069Z,61.28
2023-05-05T20:02:39.315Z,61.73
2023-05-05T20:05:08.082Z,61.74
2023-05-05T20:07:37.364Z,61.68
2023-05-05T20:10:07.352Z,61.87
2023-05-05T20:12:35.534Z,61.64
2023-05-05T20:15:03.454Z,61.58
2023-05-05T20:17:31.361Z,62.46
2023-05-05T20:19:59.233Z,62.17
2023-05-05T20:22:27.171Z,61.67
2023-05-05T20:24:56.440Z,61.72
2023-05-05T20:27:25.931Z,62.52
2023-05-05T20:29:54.657Z,62.33
2023-05-05T20:32:22.648Z,62.25
2023-05-05T20:34:50.529Z,61.69
2023-05-05T20:37:18.528Z,61.95
2023-05-05T20:39:47.330Z,62.46
2023-05-05T20:42:16.600Z,62.27
2023-05-05T20:44:44.499Z,62.87
2023-05-05T20:47:12.602Z,63.18
2023-05-05T20:49:40.743Z,63.51
2023-05-05T20:52:08.668Z,64.13
2023-05-05T20:54:36.650Z,64.06
2023-05-05T20:57:04.605Z,64.32
2023-05-05T20:59:33.913Z,63.98
2023-05-05T21:02:01.904Z,63.98
2023-05-05T21:04:29.889Z,63.83
2023-05-05T21:06:58.426Z,63.89
2023-05-05T21:09:26.720Z,64.76
2023-05-05T21:11:54.762Z,64.57
2023-05-05T21:14:23.423Z,64.14
2023-05-05T21:16:52.789Z,63.98
2023-05-05T21:19:21.270Z,64.61
2023-05-05T21:21:49.521Z,64.43
2023-05-05T21:24:17.492Z,64.44
2023-05-05T21:26:46.048Z,64.16
2023-05-05T21:29:13.900Z,63.37
2023-05-05T21:31:41.825Z,63.86
2023-05-05T21:34:11.489Z,64.31
2023-05-05T21:36:39.487Z,64.89
2023-05-05T21:39:07.514Z,65.12
2023-05-05T21:41:35.461Z,64.93
2023-05-05T21:44:03.585Z,64.85
2023-05-05T21:46:31.615Z,64.42
2023-05-05T21:48:59.580Z,64.16
2023-05-05T21:51:28.863Z,64.04
2023-05-05T21:53:57.328Z,64.10
2023-05-05T21:56:25.436Z,64.80
2023-05-05T21:58:53.340Z,65.00
2023-05-05T22:01:21.251Z,65.21
2023-05-05T22:03:49.264Z,64.82
2023-05-05T22:06:18.553Z,64.58
2023-05-05T22:08:48.053Z,64.44
2023-05-05T22:11:16.141Z,64.67
2023-05-05T22:13:44.007Z,64.74
2023-05-05T22:16:12.824Z,64.85
2023-05-05T22:18:40.772Z,64.52
2023-05-05T22:21:08.651Z,64.52
2023-05-05T22:23:37.255Z,64.70
2023-05-05T22:26:06.755Z,65.07
2023-05-05T22:28:34.795Z,65.04
2023-05-05T22:31:02.815Z,65.28
2023-05-05T22:33:30.787Z,65.60
2023-05-05T22:35:58.754Z,66.17
2023-05-05T22:38:26.953Z,65.91
2023-05-05T22:40:54.805Z,66.63
2023-05-05T22:43:24.169Z,65.93
2023-05-05T22:45:52.316Z,66.05
2023-05-05T22:48:20.295Z,66.33
2023-05-05T22:50:48.227Z,66.52
2023-05-05T22:53:16.141Z,66.44
2023-05-05T22:55:44.117Z,67.42
2023-05-05T22:58:11.991Z,68.18
2023-05-05T23:00:41.288Z,69.41
2023-05-05T23:03:09.671Z,69.58
2023-05-05T23:05:37.528Z,69.63
2023-05-05T23:08:06.727Z,69.10
2023-05-05T23:10:34.818Z,68.57
2023-05-05T23:13:02.835Z,69.37
2023-05-05T23:15:31.177Z,69.31
2023-05-05T23:18:00.521Z,70.23
2023-05-05T23:20:28.972Z,70.03
2023-05-05T23:22:57.085Z,70.40
2023-05-05T23:25:25.011Z,70.71
2023-05-05T23:27:52.967Z,70.95
2023-05-05T23:30:21.099Z,70.82
2023-05-05T23:32:49.205Z,71.56
2023-05-05T23:35:18.555Z,72.85
2023-05-05T23:37:46.454Z,73.40
2023-05-05T23:40:14.388Z,74.03
2023-05-05T23:42:42.279Z,74.23
2023-05-05T23:45:11.544Z,74.60
2023-05-05T23:47:39.663Z,75.29
2023-05-05T23:50:08.974Z,75.39
2023-05-05T23:52:38.266Z,75.32
2023-05-05T23:55:07.513Z,75.40
2023-05-05T23:57:36.463Z,76.26
